This is the latest recevied weather packets stored in our database for station/object KC0QBU-13. If no packets are shown the sender has not sent any weather packets the latest 10 day(s).
| Time | Temp. | Humidity | Pressure | Rain* | Wind** | Luminosity | Snow |
|---|---|---|---|---|---|---|---|
| 1777551903 | 7.78° C | 83% | 1019.4 hPa | 0 mm | - | - | - |
| 1777551003 | 7.22° C | 84% | 1019.2 hPa | 0 mm | - | - | - |
| 1777550704 | 7.22° C | 85% | 1019.2 hPa | 0 mm | - | - | - |
| 1777545604 | 6.11° C | 86% | 1019.2 hPa | 0 mm | - | - | - |
| 1777542303 | 6.11° C | 84% | 1019.5 hPa | 0 mm | - | - | - |
| 1777542004 | 6.11° C | 84% | 1019.5 hPa | 0 mm | - | - | - |
| 1777539903 | 6.11° C | 85% | 1019.2 hPa | 0 mm | - | - | - |
| 1777538703 | 6.11° C | 85% | 1018.7 hPa | 0 mm | - | - | - |
| 1777538404 | 6.11° C | 85% | 1018.7 hPa | 0 mm | - | - | - |
| 1777536604 | 6.67° C | 83% | 1018.5 hPa | 0 mm | - | - | - |
| 1777536004 | 6.67° C | 83% | 1018.8 hPa | 0 mm | - | - | - |
| 1777527903 | 7.78° C | 78% | 1019.9 hPa | 0 mm | - | - | - |
| 1777527304 | 8.33° C | 79% | 1019.9 hPa | 0 mm | - | - | - |
| 1777527003 | 8.33° C | 80% | 1020 hPa | 0 mm | - | - | - |
| 1777525503 | 8.33° C | 78% | 1019.9 hPa | 0 mm | - | - | - |
| 1777525205 | 8.33° C | 77% | 1019.9 hPa | 0 mm | - | - | - |
| 1777523703 | 8.89° C | 75% | 1019.9 hPa | 0 mm | - | - | - |
| 1777522804 | 9.44° C | 74% | 1020 hPa | 0 mm | - | - | - |
| 1777522204 | 9.44° C | 73% | 1019.9 hPa | 0 mm | - | - | - |
| 1777521903 | 9.44° C | 73% | 1020 hPa | 0 mm | - | - | - |
| 1777521603 | 9.44° C | 72% | 1020.1 hPa | 0 mm | - | - | - |
| 1777520104 | 10° C | 72% | 1020 hPa | 0 mm | - | - | - |
| 1777516203 | 11.11° C | 65% | 1019.7 hPa | 0 mm | - | - | - |
| 1777512303 | 12.78° C | 59% | 1019 hPa | 0 mm | - | - | - |
| 1777511403 | 13.33° C | 56% | 1018.8 hPa | 0 mm | - | - | - |
* Rain latest hour (hover to see other rain measurements)
** Current wind speed in m/s (hover to see current wind gust speed)